createdAt,value
2023-01-17T00:00:10.017Z,6.56
2023-01-17T00:02:38.026Z,6.58
2023-01-17T00:05:25.975Z,6.62
2023-01-17T00:08:11.303Z,6.63
2023-01-17T00:10:41.845Z,6.63
2023-01-17T00:13:09.923Z,6.67
2023-01-17T00:15:40.040Z,6.67
2023-01-17T00:18:08.229Z,6.65
2023-01-17T00:20:55.478Z,6.62
2023-01-17T00:23:42.612Z,6.63
2023-01-17T00:26:14.375Z,6.65
2023-01-17T00:28:42.562Z,6.68
2023-01-17T00:31:11.030Z,6.70
2023-01-17T00:33:37.766Z,6.75
2023-01-17T00:36:07.866Z,6.80
2023-01-17T00:38:37.556Z,6.82
2023-01-17T00:41:06.291Z,6.88
2023-01-17T00:43:52.107Z,6.89
2023-01-17T00:46:38.140Z,6.92
2023-01-17T00:49:23.957Z,6.93
2023-01-17T00:52:10.701Z,6.95
2023-01-17T00:54:55.754Z,6.97
2023-01-17T00:57:41.153Z,6.99
2023-01-17T01:00:27.754Z,7.01
2023-01-17T01:03:13.622Z,7.03
2023-01-17T01:05:58.728Z,7.06
2023-01-17T01:08:47.686Z,7.09
2023-01-17T01:11:34.778Z,7.12
2023-01-17T01:14:20.504Z,7.14
2023-01-17T01:17:05.623Z,7.15
2023-01-17T01:19:51.102Z,7.15
2023-01-17T01:22:36.181Z,7.14
2023-01-17T01:25:23.675Z,7.14
2023-01-17T01:28:09.039Z,7.14
2023-01-17T01:30:54.409Z,7.11
2023-01-17T01:33:21.181Z,7.08
2023-01-17T01:35:51.360Z,7.07
2023-01-17T01:38:19.960Z,7.05
2023-01-17T01:40:51.891Z,7.07
2023-01-17T01:43:21.810Z,7.06
2023-01-17T01:45:54.220Z,7.02
2023-01-17T01:48:38.843Z,7.05
2023-01-17T01:51:11.297Z,7.03
2023-01-17T01:53:44.199Z,7.06
2023-01-17T01:56:15.370Z,7.07
2023-01-17T01:58:47.019Z,7.07
2023-01-17T02:01:16.076Z,7.07
2023-01-17T02:03:44.794Z,7.06
2023-01-17T02:06:35.511Z,7.06
2023-01-17T02:09:07.160Z,7.06
2023-01-17T02:11:38.959Z,7.07
2023-01-17T02:14:07.078Z,7.06
2023-01-17T02:16:51.467Z,7.03
2023-01-17T02:19:58.323Z,7.01
2023-01-17T02:22:54.812Z,6.95
2023-01-17T02:25:50.545Z,6.90
2023-01-17T02:28:36.216Z,6.83
2023-01-17T02:31:10.995Z,6.77
2023-01-17T02:33:43.764Z,6.72
2023-01-17T02:36:20.467Z,6.70
2023-01-17T02:38:54.039Z,6.65
2023-01-17T02:41:24.711Z,6.62
2023-01-17T02:43:56.167Z,6.60
2023-01-17T02:46:26.039Z,6.58
2023-01-17T02:48:55.441Z,6.54
2023-01-17T02:51:48.787Z,6.50
2023-01-17T02:54:54.682Z,6.51
2023-01-17T02:57:42.707Z,6.48
2023-01-17T03:00:19.806Z,6.48
2023-01-17T03:02:59.417Z,6.44
2023-01-17T03:05:34.128Z,6.41
2023-01-17T03:08:03.574Z,6.39
2023-01-17T03:10:34.283Z,6.37
2023-01-17T03:13:04.249Z,6.32
2023-01-17T03:15:32.824Z,6.31
2023-01-17T03:18:06.351Z,6.32
2023-01-17T03:20:34.391Z,6.32
2023-01-17T03:23:02.533Z,6.30
2023-01-17T03:25:30.559Z,6.31
2023-01-17T03:27:58.420Z,6.31
2023-01-17T03:30:26.525Z,6.31
2023-01-17T03:32:54.471Z,6.28
2023-01-17T03:35:23.904Z,6.28
2023-01-17T03:37:51.886Z,6.26
2023-01-17T03:40:20.256Z,6.25
2023-01-17T03:42:48.670Z,6.23
2023-01-17T03:45:16.813Z,6.22
2023-01-17T03:47:44.768Z,6.22
2023-01-17T03:50:13.680Z,6.22
2023-01-17T03:52:43.186Z,6.21
2023-01-17T03:55:11.885Z,6.19
2023-01-17T03:57:39.829Z,6.16
2023-01-17T04:00:09.199Z,6.13
2023-01-17T04:02:37.175Z,6.14
2023-01-17T04:05:05.603Z,6.14
2023-01-17T04:07:33.576Z,6.13
2023-01-17T04:10:03.047Z,6.12
2023-01-17T04:12:30.909Z,6.15
2023-01-17T04:14:58.921Z,6.17
2023-01-17T04:17:27.090Z,6.19
2023-01-17T04:19:55.357Z,6.20
2023-01-17T04:22:23.334Z,6.20
2023-01-17T04:24:51.258Z,6.19
2023-01-17T04:27:20.655Z,6.22
2023-01-17T04:29:48.573Z,6.26
2023-01-17T04:32:16.673Z,6.29
2023-01-17T04:34:44.584Z,6.30
2023-01-17T04:37:12.545Z,6.29
2023-01-17T04:39:40.562Z,6.31
2023-01-17T04:42:08.707Z,6.30
2023-01-17T04:44:38.217Z,6.28
2023-01-17T04:47:06.413Z,6.28
2023-01-17T04:49:34.468Z,6.26
2023-01-17T04:52:02.441Z,6.27
2023-01-17T04:54:30.287Z,6.26
2023-01-17T04:56:58.288Z,6.25
2023-01-17T04:59:26.330Z,6.24
2023-01-17T05:01:55.981Z,6.23
2023-01-17T05:04:24.112Z,6.23
2023-01-17T05:06:52.210Z,6.19
2023-01-17T05:09:20.351Z,6.17
2023-01-17T05:11:48.264Z,6.13
2023-01-17T05:14:16.258Z,6.10
2023-01-17T05:16:44.267Z,6.07
2023-01-17T05:19:16.467Z,6.02
2023-01-17T05:21:44.421Z,5.99
2023-01-17T05:24:12.292Z,5.94
2023-01-17T05:26:41.016Z,5.91
2023-01-17T05:29:09.219Z,5.89
2023-01-17T05:31:37.402Z,5.87
2023-01-17T05:34:05.818Z,5.88
2023-01-17T05:36:35.384Z,5.87
2023-01-17T05:39:03.373Z,5.88
2023-01-17T05:41:31.766Z,5.84
2023-01-17T05:43:59.770Z,5.82
2023-01-17T05:46:27.791Z,5.81
2023-01-17T05:48:55.769Z,5.81
2023-01-17T05:51:23.949Z,5.83
2023-01-17T05:53:53.538Z,5.82
2023-01-17T05:56:21.477Z,5.84
2023-01-17T05:58:49.449Z,5.85
2023-01-17T06:01:17.763Z,5.88
2023-01-17T06:03:45.717Z,5.90
2023-01-17T06:06:13.674Z,5.91
2023-01-17T06:08:41.612Z,5.92
2023-01-17T06:11:11.116Z,5.93
2023-01-17T06:13:39.033Z,5.93
2023-01-17T06:16:07.514Z,5.90
2023-01-17T06:18:36.846Z,5.86
2023-01-17T06:21:04.827Z,5.84
2023-01-17T06:23:33.234Z,5.81
2023-01-17T06:26:04.877Z,5.80
2023-01-17T06:28:34.506Z,5.81
2023-01-17T06:31:08.039Z,5.79
2023-01-17T06:33:36.078Z,5.82
2023-01-17T06:36:04.392Z,5.83
2023-01-17T06:38:32.627Z,5.83
2023-01-17T06:41:00.679Z,5.85
2023-01-17T06:43:32.660Z,5.86
2023-01-17T06:46:02.547Z,5.88
2023-01-17T06:48:30.633Z,5.91
2023-01-17T06:50:58.983Z,5.92
2023-01-17T06:53:27.123Z,5.96
2023-01-17T06:55:57.660Z,5.94
2023-01-17T06:58:25.627Z,6.00
2023-01-17T07:00:53.772Z,6.03
2023-01-17T07:03:25.531Z,6.02
2023-01-17T07:05:54.318Z,6.00
2023-01-17T07:08:22.342Z,5.98
2023-01-17T07:10:50.445Z,6.00
2023-01-17T07:13:18.424Z,5.99
2023-01-17T07:15:46.350Z,5.94
2023-01-17T07:18:14.771Z,5.97
2023-01-17T07:20:45.678Z,5.95
2023-01-17T07:23:13.850Z,5.99
2023-01-17T07:25:41.903Z,6.00
2023-01-17T07:28:10.392Z,6.01
2023-01-17T07:30:38.477Z,6.00
2023-01-17T07:33:06.498Z,6.04
2023-01-17T07:35:34.411Z,6.04
2023-01-17T07:38:05.969Z,6.06
2023-01-17T07:40:41.524Z,6.03
2023-01-17T07:43:14.288Z,6.04
2023-01-17T07:45:44.272Z,6.04
2023-01-17T07:48:13.304Z,6.06
2023-01-17T07:50:41.532Z,6.04
2023-01-17T07:53:11.599Z,6.02
2023-01-17T07:55:39.610Z,6.01
2023-01-17T07:58:07.746Z,5.98
2023-01-17T08:00:35.938Z,5.94
2023-01-17T08:03:04.061Z,5.93
2023-01-17T08:05:32.159Z,5.94
2023-01-17T08:08:00.062Z,5.93
2023-01-17T08:10:29.450Z,5.94
2023-01-17T08:12:57.369Z,5.94
2023-01-17T08:15:26.667Z,5.96
2023-01-17T08:17:54.629Z,5.99
2023-01-17T08:20:23.768Z,5.99
2023-01-17T08:22:55.106Z,5.97
2023-01-17T08:25:24.090Z,5.94
2023-01-17T08:27:58.286Z,5.90
2023-01-17T08:30:27.488Z,5.87
2023-01-17T08:32:55.690Z,5.81
2023-01-17T08:35:24.194Z,5.81
2023-01-17T08:37:56.567Z,5.78
2023-01-17T08:40:24.740Z,5.83
2023-01-17T08:42:58.184Z,5.86
2023-01-17T08:45:26.428Z,5.92
2023-01-17T08:47:54.885Z,5.96
2023-01-17T08:50:22.817Z,6.00
2023-01-17T08:52:53.339Z,6.03
2023-01-17T08:55:21.730Z,6.05
2023-01-17T08:57:49.848Z,6.03
2023-01-17T09:00:20.877Z,6.02
2023-01-17T09:02:48.795Z,6.04
2023-01-17T09:05:16.890Z,6.10
2023-01-17T09:07:44.772Z,6.13
2023-01-17T09:10:12.922Z,6.10
2023-01-17T09:12:40.895Z,6.04
2023-01-17T09:15:09.895Z,6.01
2023-01-17T09:17:39.283Z,6.02
2023-01-17T09:20:08.846Z,6.07
2023-01-17T09:22:37.800Z,6.14
2023-01-17T09:25:07.127Z,6.21
2023-01-17T09:27:35.238Z,6.25
2023-01-17T09:30:03.204Z,6.23
2023-01-17T09:32:31.247Z,6.24
2023-01-17T09:35:00.810Z,6.23
2023-01-17T09:37:28.870Z,6.26
2023-01-17T09:39:57.056Z,6.30
2023-01-17T09:42:33.473Z,6.35
2023-01-17T09:45:02.491Z,6.44
2023-01-17T09:47:37.457Z,6.53
2023-01-17T09:50:21.671Z,6.57
2023-01-17T09:52:50.023Z,6.64
2023-01-17T09:55:18.962Z,6.68
2023-01-17T09:57:58.159Z,6.71
2023-01-17T10:00:37.615Z,6.73
2023-01-17T10:03:24.997Z,6.75
2023-01-17T10:06:02.793Z,6.76
2023-01-17T10:08:46.199Z,6.81
2023-01-17T10:11:35.011Z,6.84
2023-01-17T10:14:21.407Z,6.87
2023-01-17T10:16:56.306Z,6.92
2023-01-17T10:19:37.613Z,6.99
2023-01-17T10:22:25.773Z,7.05
2023-01-17T10:25:18.811Z,7.11
2023-01-17T10:27:52.638Z,7.19
2023-01-17T10:30:25.138Z,7.29
2023-01-17T10:32:53.053Z,7.37
2023-01-17T10:35:25.017Z,7.40
2023-01-17T10:37:58.269Z,7.49
2023-01-17T10:40:33.922Z,7.59
2023-01-17T10:43:05.860Z,7.68
2023-01-17T10:45:41.318Z,7.78
2023-01-17T10:48:16.798Z,7.89
2023-01-17T10:50:52.946Z,7.97
2023-01-17T10:53:40.010Z,8.04
2023-01-17T10:56:09.167Z,8.12
2023-01-17T10:58:38.593Z,8.15
2023-01-17T11:01:16.709Z,8.20
2023-01-17T11:03:46.548Z,8.27
2023-01-17T11:06:20.007Z,8.37
2023-01-17T11:08:54.912Z,8.44
2023-01-17T11:11:30.143Z,8.58
2023-01-17T11:13:59.755Z,8.66
2023-01-17T11:16:31.580Z,8.80
2023-01-17T11:19:09.633Z,8.90
2023-01-17T11:21:41.034Z,8.98
2023-01-17T11:24:21.383Z,9.11
2023-01-17T11:26:50.658Z,9.19
2023-01-17T11:29:31.758Z,9.26
2023-01-17T11:32:28.986Z,9.29
2023-01-17T11:35:17.617Z,9.29
2023-01-17T11:37:50.704Z,9.24
2023-01-17T11:40:26.558Z,9.21
2023-01-17T11:43:06.735Z,9.19
2023-01-17T11:45:35.996Z,9.14
2023-01-17T11:48:13.518Z,9.10
2023-01-17T11:50:43.252Z,9.03
2023-01-17T11:53:22.756Z,8.99
2023-01-17T11:55:57.758Z,8.97
2023-01-17T11:58:27.784Z,8.96
2023-01-17T12:01:02.204Z,8.96
2023-01-17T12:03:48.260Z,9.05
2023-01-17T12:06:23.249Z,9.05
2023-01-17T12:09:06.020Z,9.06
2023-01-17T12:12:07.032Z,9.10
2023-01-17T12:14:44.020Z,9.13
2023-01-17T12:17:24.372Z,9.21
2023-01-17T12:20:01.625Z,9.29
2023-01-17T12:22:46.194Z,9.34
2023-01-17T12:25:25.707Z,9.39
2023-01-17T12:28:08.989Z,9.44
2023-01-17T12:30:47.820Z,9.50
2023-01-17T12:33:22.666Z,9.59
2023-01-17T12:35:55.006Z,9.64
2023-01-17T12:38:32.947Z,9.71
2023-01-17T12:41:07.457Z,9.79
2023-01-17T12:43:40.978Z,9.88
2023-01-17T12:46:17.217Z,9.92
2023-01-17T12:48:46.328Z,9.96
2023-01-17T12:51:19.740Z,10.03
2023-01-17T12:53:58.130Z,10.11
2023-01-17T12:56:32.694Z,10.13
2023-01-17T12:59:14.091Z,10.14
2023-01-17T13:01:45.755Z,10.14
2023-01-17T13:04:23.276Z,10.05
2023-01-17T13:07:02.126Z,9.98
2023-01-17T13:09:36.241Z,9.90
2023-01-17T13:12:07.435Z,9.83
2023-01-17T13:14:36.972Z,9.80
2023-01-17T13:17:14.208Z,9.78
2023-01-17T13:19:50.277Z,9.74
2023-01-17T13:22:21.861Z,9.68
2023-01-17T13:24:56.153Z,9.61
2023-01-17T13:28:02.751Z,9.58
2023-01-17T13:30:46.901Z,9.59
2023-01-17T13:33:31.400Z,9.58
2023-01-17T13:36:10.775Z,9.58
2023-01-17T13:39:05.896Z,9.61
2023-01-17T13:41:45.549Z,9.73
2023-01-17T13:44:24.877Z,9.79
2023-01-17T13:47:04.192Z,9.84
2023-01-17T13:49:44.245Z,9.89
2023-01-17T13:52:30.996Z,9.94
2023-01-17T13:55:01.943Z,9.98
2023-01-17T13:57:42.236Z,10.07
2023-01-17T14:00:51.685Z,10.25
2023-01-17T14:03:52.894Z,10.45
2023-01-17T14:06:36.794Z,10.57
2023-01-17T14:09:12.406Z,10.61
2023-01-17T14:11:53.192Z,10.54
2023-01-17T14:14:38.663Z,10.48
2023-01-17T14:17:49.482Z,10.44
2023-01-17T14:20:52.833Z,10.41
2023-01-17T14:23:42.269Z,10.38
2023-01-17T14:26:31.036Z,10.36
2023-01-17T14:29:00.907Z,10.36
2023-01-17T14:31:30.904Z,10.33
2023-01-17T14:34:13.250Z,10.39
2023-01-17T14:36:41.429Z,10.44
2023-01-17T14:39:25.268Z,10.62
2023-01-17T14:41:53.467Z,10.85
2023-01-17T14:44:22.011Z,11.08
2023-01-17T14:46:50.580Z,11.33
2023-01-17T14:49:25.352Z,11.28
2023-01-17T14:52:01.137Z,10.80
2023-01-17T14:54:30.952Z,10.71
2023-01-17T14:57:26.263Z,11.27
2023-01-17T15:00:10.484Z,11.87
2023-01-17T15:02:43.322Z,12.31
2023-01-17T15:05:15.472Z,12.48
2023-01-17T15:07:45.969Z,12.60
2023-01-17T15:10:17.763Z,12.68
2023-01-17T15:12:47.850Z,12.65
2023-01-17T15:15:32.260Z,12.65
2023-01-17T15:18:11.466Z,12.36
2023-01-17T15:20:40.531Z,12.17
2023-01-17T15:23:16.146Z,12.13
2023-01-17T15:25:46.460Z,12.09
2023-01-17T15:28:15.240Z,12.07
2023-01-17T15:31:01.785Z,12.07
2023-01-17T15:33:32.173Z,12.25
2023-01-17T15:36:01.642Z,12.28
2023-01-17T15:38:38.261Z,12.14
2023-01-17T15:41:12.795Z,11.93
2023-01-17T15:43:42.306Z,11.73
2023-01-17T15:46:23.795Z,11.42
2023-01-17T15:48:51.931Z,11.15
2023-01-17T15:51:34.447Z,10.91
2023-01-17T15:54:26.546Z,10.69
2023-01-17T15:57:24.949Z,10.54
2023-01-17T15:59:56.150Z,10.43
2023-01-17T16:02:35.501Z,10.30
2023-01-17T16:05:24.469Z,10.07
2023-01-17T16:07:53.734Z,9.86
2023-01-17T16:10:23.152Z,9.68
2023-01-17T16:12:56.354Z,9.55
2023-01-17T16:15:25.149Z,9.40
2023-01-17T16:17:57.661Z,9.28
2023-01-17T16:20:30.744Z,9.15
2023-01-17T16:23:00.361Z,9.05
2023-01-17T16:25:32.447Z,8.93
2023-01-17T16:28:02.525Z,8.80
2023-01-17T16:30:31.255Z,8.71
2023-01-17T16:32:59.704Z,8.61
2023-01-17T16:35:30.170Z,8.53
2023-01-17T16:37:59.836Z,8.45
2023-01-17T16:40:30.431Z,8.36
2023-01-17T16:42:59.703Z,8.31
2023-01-17T16:45:30.164Z,8.28
2023-01-17T16:47:58.009Z,8.23
2023-01-17T16:50:26.426Z,8.20
2023-01-17T16:52:56.286Z,8.15
2023-01-17T16:55:25.799Z,8.12
2023-01-17T16:57:57.391Z,8.10
2023-01-17T17:00:26.850Z,8.08
2023-01-17T17:02:56.278Z,8.08
2023-01-17T17:05:24.296Z,8.04
2023-01-17T17:07:53.192Z,7.98
2023-01-17T17:10:25.107Z,7.98
2023-01-17T17:12:53.341Z,7.96
2023-01-17T17:15:21.580Z,7.93
2023-01-17T17:17:49.949Z,7.90
2023-01-17T17:20:19.600Z,7.88
2023-01-17T17:22:51.558Z,7.90
2023-01-17T17:25:20.223Z,7.89
2023-01-17T17:27:48.215Z,7.90
2023-01-17T17:30:16.668Z,7.95
2023-01-17T17:32:46.989Z,8.00
2023-01-17T17:35:15.114Z,8.09
2023-01-17T17:37:44.563Z,8.14
2023-01-17T17:40:12.968Z,8.18
2023-01-17T17:42:40.985Z,8.23
2023-01-17T17:45:10.050Z,8.29
2023-01-17T17:47:37.999Z,8.33
2023-01-17T17:50:06.670Z,8.35
2023-01-17T17:52:34.726Z,8.43
2023-01-17T17:55:04.179Z,8.47
2023-01-17T17:57:32.071Z,8.50
2023-01-17T18:00:00.127Z,8.51
2023-01-17T18:02:28.034Z,8.55
2023-01-17T18:04:56.055Z,8.56
2023-01-17T18:07:24.141Z,8.60
2023-01-17T18:09:52.200Z,8.63
2023-01-17T18:12:21.649Z,8.65
2023-01-17T18:14:49.508Z,8.67
2023-01-17T18:17:20.349Z,8.73
2023-01-17T18:19:48.534Z,8.78
2023-01-17T18:22:16.549Z,8.82
2023-01-17T18:24:44.480Z,8.88
2023-01-17T18:27:12.421Z,8.88
2023-01-17T18:29:42.080Z,8.90
2023-01-17T18:32:10.050Z,8.94
2023-01-17T18:34:41.497Z,8.87
2023-01-17T18:37:10.096Z,8.85
2023-01-17T18:39:38.012Z,8.85
2023-01-17T18:42:06.323Z,8.87
2023-01-17T18:44:34.333Z,8.85
2023-01-17T18:47:04.837Z,8.87
2023-01-17T18:49:33.910Z,8.90
2023-01-17T18:52:02.372Z,8.92
2023-01-17T18:54:31.967Z,8.93
2023-01-17T18:56:59.939Z,8.94
2023-01-17T18:59:28.299Z,8.95
2023-01-17T19:01:56.899Z,8.92
2023-01-17T19:04:28.415Z,8.93
2023-01-17T19:06:56.905Z,8.91
2023-01-17T19:09:24.981Z,8.95
2023-01-17T19:11:52.920Z,8.94
2023-01-17T19:14:20.952Z,8.94
2023-01-17T19:16:49.023Z,8.91
2023-01-17T19:19:17.227Z,8.91
2023-01-17T19:21:46.738Z,8.91
2023-01-17T19:24:14.828Z,9.01
2023-01-17T19:26:43.275Z,9.04
2023-01-17T19:29:12.183Z,9.08
2023-01-17T19:31:43.348Z,9.11
2023-01-17T19:34:13.891Z,9.13
2023-01-17T19:36:42.091Z,9.14
2023-01-17T19:39:11.993Z,9.16
2023-01-17T19:41:44.809Z,9.16
2023-01-17T19:44:14.963Z,9.18
2023-01-17T19:46:43.895Z,9.22
2023-01-17T19:49:11.924Z,9.20
2023-01-17T19:51:40.553Z,9.19
2023-01-17T19:54:09.092Z,9.25
2023-01-17T19:56:38.858Z,9.20
2023-01-17T19:59:07.201Z,9.19
2023-01-17T20:01:36.432Z,9.23
2023-01-17T20:04:05.108Z,9.18
2023-01-17T20:06:35.242Z,9.16
2023-01-17T20:09:04.258Z,9.14
2023-01-17T20:11:32.289Z,9.13
2023-01-17T20:14:02.081Z,9.09
2023-01-17T20:16:31.584Z,9.10
2023-01-17T20:19:02.557Z,9.05
2023-01-17T20:21:32.293Z,9.05
2023-01-17T20:24:03.492Z,9.11
2023-01-17T20:26:36.183Z,9.11
2023-01-17T20:29:10.260Z,9.07
2023-01-17T20:31:39.428Z,9.06
2023-01-17T20:34:10.053Z,9.07
2023-01-17T20:36:39.693Z,9.10
2023-01-17T20:39:11.070Z,9.10
2023-01-17T20:41:40.384Z,9.07
2023-01-17T20:44:15.230Z,9.09
2023-01-17T20:46:43.935Z,9.12
2023-01-17T20:49:14.863Z,9.13
2023-01-17T20:51:44.734Z,9.13
2023-01-17T20:54:14.551Z,9.12
2023-01-17T20:56:42.771Z,9.11
2023-01-17T20:59:15.901Z,9.08
2023-01-17T21:01:45.919Z,9.02
2023-01-17T21:04:14.826Z,9.01
2023-01-17T21:06:44.370Z,9.01
2023-01-17T21:09:14.805Z,9.05
2023-01-17T21:11:42.941Z,9.10
2023-01-17T21:14:11.330Z,9.16
2023-01-17T21:16:42.135Z,9.21
2023-01-17T21:19:12.079Z,9.18
2023-01-17T21:21:40.503Z,9.21
2023-01-17T21:24:08.884Z,9.21
2023-01-17T21:26:39.044Z,9.20
2023-01-17T21:29:07.269Z,9.12
2023-01-17T21:31:36.925Z,9.13
2023-01-17T21:34:08.838Z,9.15
2023-01-17T21:36:38.872Z,9.11
2023-01-17T21:39:08.864Z,9.08
2023-01-17T21:41:38.898Z,9.19
2023-01-17T21:44:09.871Z,9.15
2023-01-17T21:46:39.173Z,9.15
2023-01-17T21:49:10.845Z,9.16
2023-01-17T21:51:57.141Z,9.25
2023-01-17T21:54:40.709Z,9.21
2023-01-17T21:57:26.540Z,9.28
2023-01-17T21:59:54.486Z,9.26
2023-01-17T22:02:22.797Z,9.26
2023-01-17T22:04:54.677Z,9.28
2023-01-17T22:07:22.797Z,9.29
2023-01-17T22:09:50.718Z,9.30
2023-01-17T22:12:18.816Z,9.31
2023-01-17T22:14:46.954Z,9.28
2023-01-17T22:17:14.909Z,9.27
2023-01-17T22:19:43.004Z,9.25
2023-01-17T22:22:12.335Z,9.26
2023-01-17T22:24:41.786Z,9.33
2023-01-17T22:27:10.764Z,9.27
2023-01-17T22:29:39.013Z,9.25
2023-01-17T22:32:07.403Z,9.28
2023-01-17T22:34:36.014Z,9.33
2023-01-17T22:37:04.796Z,9.30
2023-01-17T22:39:35.228Z,9.34
2023-01-17T22:42:03.567Z,9.29
2023-01-17T22:44:31.727Z,9.31
2023-01-17T22:46:59.695Z,9.28
2023-01-17T22:49:28.114Z,9.25
2023-01-17T22:51:56.118Z,9.22
2023-01-17T22:54:24.330Z,9.28
2023-01-17T22:56:54.203Z,9.25
2023-01-17T22:59:22.278Z,9.27
2023-01-17T23:01:50.375Z,9.23
2023-01-17T23:04:18.421Z,9.22
2023-01-17T23:06:46.358Z,9.24
2023-01-17T23:09:17.321Z,9.22
2023-01-17T23:11:49.753Z,9.21
2023-01-17T23:14:21.667Z,9.24
2023-01-17T23:17:09.204Z,9.18
2023-01-17T23:19:38.952Z,9.15
2023-01-17T23:22:19.469Z,9.16
2023-01-17T23:24:51.136Z,9.11
2023-01-17T23:27:39.498Z,9.09
2023-01-17T23:30:12.116Z,9.10
2023-01-17T23:32:40.797Z,9.15
2023-01-17T23:35:09.268Z,9.11
2023-01-17T23:37:54.561Z,9.06
2023-01-17T23:40:22.581Z,9.03
2023-01-17T23:43:07.794Z,9.09
2023-01-17T23:45:38.222Z,9.11
2023-01-17T23:48:09.673Z,9.11
2023-01-17T23:50:38.255Z,9.10
2023-01-17T23:53:08.397Z,9.16
2023-01-17T23:55:37.738Z,9.13
2023-01-17T23:58:06.065Z,9.11
